Flight Track Log - Related Links

Times and Time Zones

All times are in EDT time to prevent confusion due to time zone crossing. See the N84RT flight status page for this flight to view local times or setup timezone preferences in your user account.

Time Position Orientation Groundspeed Altitude Reporting Facility
EDT Latitude Longitude Course Direction KTS MPH feet Rate Location/Type
Sat 09:45:12 AM 30.3719 -88.9728 90° East 142 163 2,300  Level Houston Center
Sat 09:46:13 AM 30.3681 -88.9356 97° East 141 162 2,900 738 Climbing Houston Center
Sat 09:47:14 AM 30.3639 -88.8833 95° East 136 157 3,800 829 Climbing Houston Center
Sat 09:48:16 AM 30.3586 -88.8414 98° East 134 154 4,600 780 Climbing Houston Center
Sat 09:49:00 AM 30.3027 -88.7332 95° East  Level Estimated
Sat 09:49:17 AM 30.3550 -88.7981 96° East 135 155 5,400  Level Houston Center
Sat 09:50:00 AM 30.3026 -88.6736 90° East  Level FlightAware Approximate
Sat 09:50:18 AM 30.3519 -88.7553 95° East 134 154 6,100  Level Houston Center
Sat 09:51:20 AM 30.3475 -88.7100 96° East 139 160 6,800 732 Climbing Houston Center
Sat 09:52:21 AM 30.3433 -88.6647 96° East 141 162 7,600 738 Climbing Houston Center
Sat 09:53:22 AM 30.3392 -88.6200 96° East 141 162 8,300 732 Climbing Houston Center
Sat 09:54:24 AM 30.3358 -88.5753 95° East 140 161 9,100 829 Climbing Houston Center
Sat 09:55:25 AM 30.3303 -88.5225 97° East 139 160 10,000 780 Climbing Houston Center
Sat 09:56:27 AM 30.3267 -88.4775 95° East 141 162 10,700 537 Climbing Houston Center
Sat 09:57:28 AM 30.3222 -88.4292 96° East 150 173 11,100 244 Climbing Houston Center
Sat 09:58:30 AM 30.3139 -88.3725 100° East 176 203 11,200 49 Climbing Houston Center
Sat 09:59:31 AM 30.3028 -88.3150 103° East 185 213 11,200 -49 Level Houston Center
Sat 10:00:32 AM 30.2969 -88.2522 96° East 197 227 11,100 -49 Descending Houston Center
Sat 10:01:34 AM 30.2922 -88.1925 95° East 190 219 11,100  Level Houston Center
Sat 10:02:35 AM 30.2869 -88.1328 96° East 188 216 11,100  Level Houston Center
Sat 10:03:37 AM 30.2797 -88.0589 96° East 193 222 11,100  Level Houston Center
Sat 10:04:38 AM 30.2744 -87.9992 96° East 190 219 11,100  Level Houston Center
Sat 10:05:40 AM 30.2681 -87.9400 97° East 188 216 11,100  Level Houston Center
Sat 10:06:41 AM 30.2622 -87.8800 96° East 189 217 11,100  Level Houston Center
Sat 10:08:44 AM 30.2503 -87.7608 97° East 188 216 11,100  Level Houston Center
Sat 10:09:46 AM 30.2453 -87.7011 96° East 187 215 11,100  Level Houston Center
Sat 10:10:47 AM 30.2367 -87.6294 98° East 189 217 11,100  Level Houston Center
Sat 10:11:49 AM 30.2325 -87.5689 95° East 189 217 11,100  Level Houston Center
Sat 10:12:40 AM 30.2264 -87.5222 99° East 188 216 11,100  Level Jacksonville Center
Sat 10:13:41 AM 30.2181 -87.4642 99° East 188 216 11,100  Level Jacksonville Center
Sat 10:14:41 AM 30.2139 -87.4017 94° East 191 220 11,100  Level Jacksonville Center
Sat 10:15:42 AM 30.2078 -87.3389 96° East 192 221 11,100  Level Jacksonville Center
Sat 10:16:43 AM 30.2014 -87.2808 97° East 192 221 11,100  Level Jacksonville Center
Sat 10:17:43 AM 30.1953 -87.2156 96° East 190 219 11,100 Level Jacksonville Center
Sat 10:19:00 AM 30.1897 -87.1394 95° East  Level FlightAware Approximate
Sat 10:26:00 AM 30.1551 -86.7242 97° East  Level FlightAware Approximate
Sat 10:27:00 AM 30.1488 -86.6651 97° East  Level FlightAware Approximate
Sat 10:28:00 AM 30.1425 -86.6060 97° East  Level FlightAware Approximate
Sat 10:29:00 AM 30.1361 -86.5469 97° East  Level FlightAware Approximate
Sat 10:30:00 AM 30.1297 -86.4878 97° East  Level FlightAware Approximate
Sat 10:31:00 AM 30.1233 -86.4287 97° East  Level FlightAware Approximate
Sat 10:32:00 AM 30.1321 -86.3706 80° East  Level FlightAware Approximate
Sat 10:33:00 AM 30.1409 -86.3125 80° East  Level FlightAware Approximate
Sat 10:34:00 AM 30.1497 -86.2543 80° East  Level FlightAware Approximate
Sat 10:35:00 AM 30.1584 -86.1962 80° East  Level FlightAware Approximate
Sat 10:36:00 AM 30.1671 -86.1380 80° East  Level FlightAware Approximate
Sat 10:37:00 AM 30.1758 -86.0798 80° East  Level FlightAware Approximate
Sat 10:38:00 AM 30.1845 -86.0216 80° East  Level FlightAware Approximate
Sat 10:39:00 AM 30.1579 -85.9707 121° Southeast  Level Estimated
Sat 10:40:00 AM 30.1313 -85.9198 121° Southeast  Level Estimated
Sat 10:41:00 AM 30.1046 -85.8690 121° Southeast  Level Estimated
Sat 10:42:00 AM 30.0780 -85.8182 121° Southeast  Level Estimated
Sat 10:43:00 AM 30.0513 -85.7673 121° Southeast  Level Estimated
Sat 10:44:00 AM 30.0246 -85.7166 121° Southeast  Level Estimated
Sat 10:45:00 AM 29.9979 -85.6658 121° Southeast  Level Estimated
Sat 10:46:00 AM 29.9712 -85.6151 121° Southeast  Level Estimated
Sat 10:47:00 AM 29.9444 -85.5644 121° Southeast  Level Estimated
Sat 10:48:00 AM 29.9177 -85.5138 121° Southeast  Level Estimated
Sat 10:48:06 AM 29.7186 -85.4658 121° Southeast 209 241 11,200  Level Jacksonville Center
Sat 10:49:00 AM 29.8909 -85.4631 121° Southeast  Level Estimated
Sat 10:49:06 AM 29.6925 -85.4125 119° Southeast 204 235 11,200  Level Jacksonville Center
Sat 10:50:00 AM 29.8641 -85.4125 121° Southeast  Level Estimated
Sat 10:50:06 AM 29.6664 -85.3592 119° Southeast 199 229 11,200  Level Jacksonville Center
Sat 10:51:00 AM 29.8372 -85.3619 121° Southeast  Level Estimated
Sat 10:51:06 AM 29.6403 -85.3058 119° Southeast 194 223 11,200  Level Jacksonville Center
Sat 10:52:00 AM 29.8104 -85.3114 121° Southeast  Level Estimated
Sat 10:52:06 AM 29.6142 -85.2503 118° Southeast 194 223 11,200  Level Jacksonville Center
Sat 10:53:06 AM 29.5881 -85.1972 119° Southeast 189 217 11,200  Level Jacksonville Center
Sat 10:54:06 AM 29.5619 -85.1417 118° Southeast 189 217 11,200  Level Jacksonville Center
Sat 10:55:06 AM 29.5358 -85.0861 118° Southeast 189 217 11,200  Level Jacksonville Center
Sat 10:56:06 AM 29.5094 -85.0331 120° Southeast 189 217 11,200  Level Jacksonville Center
Sat 10:57:06 AM 29.4833 -84.9778 118° Southeast 189 217 11,200  Level Jacksonville Center
Sat 10:58:06 AM 29.4569 -84.9269 121° Southeast 189 217 11,200  Level Jacksonville Center
Sat 10:59:06 AM 29.4308 -84.8717 118° Southeast 189 217 11,200  Level Jacksonville Center
Sat 11:00:06 AM 29.4044 -84.8164 119° Southeast 189 217 11,200 -50 Level Jacksonville Center
Sat 11:01:06 AM 29.3781 -84.7633 120° Southeast 189 217 11,100 -50 Descending Jacksonville Center
Sat 11:02:06 AM 29.3539 -84.7081 117° Southeast 189 217 11,100  Level Jacksonville Center
Sat 11:03:06 AM 29.3253 -84.6575 123° Southeast 189 217 11,100  Level Jacksonville Center
Sat 11:04:06 AM 29.3011 -84.6000 116° Southeast 189 217 11,100  Level Jacksonville Center
Sat 11:05:06 AM 29.2703 -84.5494 125° Southeast 194 223 11,100  Level Jacksonville Center
Sat 11:06:06 AM 29.2461 -84.4942 117° Southeast 189 217 11,100  Level Jacksonville Center
Sat 11:07:06 AM 29.2156 -84.4367 121° Southeast 189 217 11,100  Level Jacksonville Center
Sat 11:08:06 AM 29.1889 -84.3817 119° Southeast 194 223 11,100  Level Jacksonville Center
Sat 11:09:06 AM 29.1644 -84.3289 118° Southeast 194 223 11,100  Level Jacksonville Center
Sat 11:10:06 AM 29.1381 -84.2739 119° Southeast 194 223 11,100  Level Jacksonville Center
Sat 11:11:06 AM 29.1114 -84.2211 120° Southeast 194 223 11,100  Level Jacksonville Center
Sat 11:12:06 AM 29.0806 -84.1661 123° Southeast 194 223 11,100  Level Jacksonville Center
Sat 11:13:06 AM 29.0561 -84.1158 119° Southeast 187 215 11,100  Level Jacksonville Center
Sat 11:14:06 AM 29.0317 -84.0611 117° Southeast 193 222 11,100  Level Jacksonville Center
Sat 11:15:06 AM 29.0028 -84.0083 122° Southeast 193 222 11,100  Level Jacksonville Center
Sat 11:16:06 AM 28.9761 -83.9536 119° Southeast 188 216 11,100  Level Jacksonville Center
Sat 11:17:06 AM 28.9494 -83.8986 119° Southeast 193 222 11,100  Level Jacksonville Center
Sat 11:18:06 AM 28.9228 -83.8486 121° Southeast 193 222 11,100  Level Jacksonville Center
Sat 11:19:06 AM 28.8939 -83.7914 120° Southeast 187 215 11,100  Level Jacksonville Center
Sat 11:20:06 AM 28.8692 -83.7389 118° Southeast 192 221 11,100  Level Jacksonville Center
Sat 11:21:06 AM 28.8633 -83.6797 96° East 184 212 11,100  Level Jacksonville Center
Sat 11:22:06 AM 28.8575 -83.6203 96° East 184 212 11,100  Level Jacksonville Center
Sat 11:23:06 AM 28.8514 -83.5633 97° East 184 212 11,100 -50 Level Jacksonville Center
Sat 11:24:06 AM 28.8456 -83.5017 96° East 184 212 11,000 -300 Descending Jacksonville Center
Sat 11:25:06 AM 28.8394 -83.4400 96° East 184 212 10,500 -450 Descending Jacksonville Center
Sat 11:26:06 AM 28.8314 -83.3736 98° East 194 223 10,100 -450 Descending Jacksonville Center
Sat 11:27:06 AM 28.8275 -83.3097 94° East 199 229 9,600 -500 Descending Jacksonville Center
Sat 11:28:06 AM 28.8214 -83.2481 96° East 204 235 9,100 -300 Descending Jacksonville Center
Sat 11:29:06 AM 28.8153 -83.1864 96° East 198 228 9,000 -50 Descending Jacksonville Center
Sat 11:30:06 AM 28.8092 -83.1272 97° East 193 222 9,000  Level Jacksonville Center
Sat 11:31:06 AM 28.8031 -83.0728 97° East 182 209 9,000  Level Jacksonville Center
Sat 11:32:06 AM 28.7947 -83.0158 99° East 182 209 9,000  Level Jacksonville Center
Sat 11:33:06 AM 28.7906 -82.9589 95° East 182 209 9,000  Level Jacksonville Center
Sat 11:34:06 AM 28.7864 -82.9114 96° East 182 209 9,000  Level Jacksonville Center
Sat 11:35:06 AM 28.7781 -82.8428 98° East 182 209 9,000  Level Jacksonville Center
Sat 11:36:06 AM 28.7717 -82.7861 97° East 182 209 9,000  Level Jacksonville Center
Sat 11:37:06 AM 28.7656 -82.7267 97° East 182 209 9,000  Level Jacksonville Center
Sat 11:38:43 AM 28.7667 -82.6333 89° East 183 211 9,000  Level Tampa TRACON
Sat 11:39:37 AM 28.7500 -82.5833 111° Southeast 182 209 9,000  Level Tampa TRACON
Sat 11:40:48 AM 28.7500 -82.5167 90° East 185 213 9,000  Level Tampa TRACON
Sat 11:41:43 AM 28.7167 -82.4667 127° Southeast 194 223 9,000  Level Tampa TRACON
Sat 11:42:43 AM 28.6667 -82.4333 150° Southeast 192 221 9,000  Level Tampa TRACON
Sat 11:43:43 AM 28.6333 -82.4167 156° South 194 223 9,000 -350 Level Tampa TRACON
Sat 11:44:43 AM 28.5833 -82.3833 150° Southeast 202 232 8,300 -700 Descending Tampa TRACON
Sat 11:45:43 AM 28.5167 -82.3500 156° South 211 243 7,600 -700 Descending Tampa TRACON
Sat 11:46:43 AM 28.4667 -82.3167 150° Southeast 213 245 6,900 -800 Descending Tampa TRACON
Sat 11:47:43 AM 28.4167 -82.2833 150° Southeast 212 244 6,000 -450 Descending Tampa TRACON
Sat 11:48:43 AM 28.3667 -82.2667 164° South 186 214 6,000 -200 Level Tampa TRACON
Sat 11:49:43 AM 28.3167 -82.2667 180° South 177 204 5,600 -650 Descending Tampa TRACON
Sat 11:50:43 AM 28.2667 -82.2500 164° South 193 222 4,700 -850 Descending Tampa TRACON
Sat 11:51:43 AM 28.2167 -82.2500 180° South 190 219 3,900 -762 Descending Tampa TRACON
Sat 11:52:49 AM 28.1667 -82.2500 180° South 186 214 3,100 -476 Descending Tampa TRACON
Sat 11:53:49 AM 28.1167 -82.2333 164° South 164 189 2,900 -158 Descending Tampa TRACON
Sat 11:54:43 AM 28.0667 -82.2333 180° South 153 176 2,800 -105 Descending Tampa TRACON
Sat 11:55:43 AM 28.0333 -82.2333 180° South 160 184 2,700 -100 Descending Tampa TRACON
Sat 11:56:43 AM 27.9833 -82.2333 180° South 143 165 2,600 -429 Descending Tampa TRACON
Sat 11:57:49 AM 27.9833 -82.1833 90° East 171 197 1,800 -450 Descending Tampa TRACON
Sat 11:58:43 AM 27.9833 -82.1333 90° East 147 169 1,700 -211 Descending Tampa TRACON
Sat 11:59:43 AM 27.9833 -82.1000 90° East 112 129 1,400 -450 Descending Tampa TRACON
Sat 12:00:43 PM 27.9833 -82.0667 90° East 107 123 800 -600 Descending Tampa TRACON
Sat 12:02:00 PM 27.9833 -82.0167 105° East  Level FlightAware Approximate
Sat 12:09:00 PM 27.9889 -82.0186 105° East  Level Estimated
Sat 12:10:00 PM 27.9833 -82.0167 105° East  Level FlightAware Approximate

Login

Don't have an account? Register now (free) for customized features, flight alerts, and more!